Time;durP1;ratioP1;P1;durP2;ratioP2;P2;SDS_P1;SDS_P2;PMS_P1;PMS_P2;Temp;Humidity;BMP_temperature;BMP_pressure;BME280_temperature;BME280_humidity;BME280_pressure;Samples;Min_cycle;Max_cycle;Signal;HPM_P1;HPM_P2
2023/01/27 00:07:45;;;;;;;1.25;0.63;;;6.00;92.20;;;;;;20671888;28;20043;-45
2023/01/27 00:17:46;;;;;;;1.85;1.05;;;6.00;75.10;;;;;;20656289;28;20072;-46
2023/01/27 00:27:47;;;;;;;3.45;1.38;;;6.00;68.30;;;;;;20664578;28;20498;-45
2023/01/27 00:37:48;;;;;;;4.00;1.92;;;6.10;57.80;;;;;;20664695;28;20501;-45
2023/01/27 00:47:51;;;;;;;1.90;0.60;;;6.00;67.30;;;;;;20663800;28;20104;-45
2023/01/27 00:57:52;;;;;;;2.90;1.05;;;5.90;71.70;;;;;;20660213;28;20702;-45
2023/01/27 01:07:53;;;;;;;1.70;0.90;;;5.90;78.20;;;;;;20662571;28;20066;-45
2023/01/27 01:17:54;;;;;;;1.95;0.75;;;6.00;66.40;;;;;;20662771;28;20035;-45
2023/01/27 01:27:55;;;;;;;2.58;0.77;;;5.90;68.30;;;;;;20659160;28;20045;-46
2023/01/27 01:37:56;;;;;;;2.47;0.93;;;5.80;82.60;;;;;;20662306;28;20035;-45
2023/01/27 01:48:21;;;;;;;3.47;1.70;;;5.90;69.00;;;;;;20664146;28;20034;-45
2023/01/27 01:58:23;;;;;;;3.95;1.10;;;5.80;61.10;;;;;;20663444;28;20737;-45
2023/01/27 02:08:33;;;;;;;2.88;1.00;;;5.80;50.40;;;;;;20656521;28;20068;-45
2023/01/27 02:18:36;;;;;;;2.47;0.90;;;5.80;52.10;;;;;;20674886;28;20046;-45
2023/01/27 02:28:37;;;;;;;3.22;1.05;;;5.70;51.30;;;;;;20678436;28;20045;-45
2023/01/27 02:38:48;;;;;;;1.83;0.77;;;5.80;54.30;;;;;;20678074;28;20034;-45
2023/01/27 02:48:49;;;;;;;7.28;2.25;;;5.70;67.50;;;;;;20670926;28;20054;-45
2023/01/27 02:58:50;;;;;;;5.43;2.33;;;5.70;51.20;;;;;;20674301;28;20044;-45
2023/01/27 03:08:51;;;;;;;3.55;1.52;;;5.70;57.90;;;;;;20669708;28;20139;-45
2023/01/27 03:18:52;;;;;;;7.45;2.92;;;5.60;65.90;;;;;;20675605;28;20893;-45
2023/01/27 03:49:32;;;;;;;5.75;2.38;;;5.20;49.00;;;;;;20658574;28;20894;-47
2023/01/27 03:59:34;;;;;;;5.05;2.08;;;5.10;59.00;;;;;;20670990;28;20034;-47
2023/01/27 04:09:35;;;;;;;4.85;2.17;;;5.20;50.50;;;;;;20671360;28;20050;-47
2023/01/27 04:19:37;;;;;;;1.98;1.17;;;5.10;43.00;;;;;;20668003;28;20042;-47
2023/01/27 04:29:40;;;;;;;3.30;1.88;;;4.90;53.50;;;;;;20664618;28;20565;-47
2023/01/27 04:39:41;;;;;;;2.65;1.20;;;5.00;47.20;;;;;;20651642;28;20473;-45
2023/01/27 04:49:42;;;;;;;2.58;1.13;;;5.00;44.00;;;;;;20641037;28;20410;-47
2023/01/27 04:59:43;;;;;;;1.70;0.60;;;5.10;36.00;;;;;;20642498;28;20043;-45
2023/01/27 05:09:44;;;;;;;1.55;0.90;;;5.10;29.90;;;;;;20632510;28;20038;-47
2023/01/27 05:19:45;;;;;;;0.85;0.45;;;5.10;30.10;;;;;;20633929;28;20035;-47
2023/01/27 05:29:46;;;;;;;1.40;0.50;;;5.10;27.40;;;;;;20630990;28;20042;-47
2023/01/27 05:39:47;;;;;;;1.45;0.60;;;5.30;19.20;;;;;;20628609;28;20042;-47
2023/01/27 05:49:48;;;;;;;3.08;1.25;;;5.30;18.90;;;;;;20639623;28;20073;-47
2023/01/27 05:59:49;;;;;;;2.03;0.70;;;5.30;15.90;;;;;;20638379;28;20026;-45
2023/01/27 06:09:50;;;;;;;0.98;0.38;;;5.20;16.80;;;;;;20646691;28;20092;-45
2023/01/27 06:19:51;;;;;;;3.58;0.70;;;5.20;16.40;;;;;;20644447;28;20438;-47
2023/01/27 06:29:52;;;;;;;0.88;0.30;;;5.20;12.30;;;;;;20631290;28;20595;-47
2023/01/27 06:39:53;;;;;;;1.38;0.43;;;5.30;2.60;;;;;;20630091;28;20596;-48
2023/01/27 06:49:54;;;;;;;0.32;0.15;;;5.10;1.00;;;;;;20635721;28;20540;-47
2023/01/27 06:59:55;;;;;;;1.40;0.88;;;5.10;2.50;;;;;;20646880;28;20038;-47
2023/01/27 07:09:56;;;;;;;1.80;0.55;;;5.10;1.00;;;;;;20642002;28;20034;-47
2023/01/27 07:19:58;;;;;;;0.93;0.38;;;5.00;3.80;;;;;;20649861;28;20465;-47
2023/01/27 07:29:59;;;;;;;1.25;0.52;;;4.90;1.70;;;;;;20656220;28;20128;-47
2023/01/27 07:40:00;;;;;;;1.23;0.80;;;4.80;1.30;;;;;;20641966;28;20367;-45
2023/01/27 07:50:01;;;;;;;2.15;0.52;;;4.80;5.20;;;;;;20648169;28;20411;-47
2023/01/27 08:00:04;;;;;;;1.75;0.70;;;4.80;4.80;;;;;;20642071;28;20049;-47
2023/01/27 08:10:05;;;;;;;1.30;0.50;;;4.70;7.40;;;;;;20639372;28;20038;-47
2023/01/27 08:20:07;;;;;;;2.60;0.80;;;4.70;6.30;;;;;;20643410;28;20030;-47
2023/01/27 08:30:09;;;;;;;2.17;0.60;;;4.70;7.40;;;;;;20650905;28;20046;-47
2023/01/27 08:40:10;;;;;;;1.35;0.60;;;4.70;9.20;;;;;;20635779;28;20050;-47
2023/01/27 08:50:11;;;;;;;1.25;0.40;;;4.90;10.20;;;;;;20656393;28;20050;-45
2023/01/27 09:00:13;;;;;;;1.75;0.60;;;5.00;7.50;;;;;;20981481;22;20042;-46
2023/01/27 09:10:15;;;;;;;1.48;0.50;;;5.00;3.60;;;;;;20639360;28;20429;-45
2023/01/27 09:20:16;;;;;;;1.98;0.73;;;5.10;3.80;;;;;;20661592;28;20046;-45
2023/01/27 09:30:17;;;;;;;4.30;0.85;;;5.40;3.20;;;;;;20670665;28;20038;-46
2023/01/27 09:40:29;;;;;;;0.95;0.30;;;5.50;1.00;;;;;;20661581;28;20091;-46
2023/01/27 09:50:54;;;;;;;1.05;0.38;;;5.60;1.00;;;;;;20645708;28;20062;-45
2023/01/27 10:01:20;;;;;;;1.00;0.32;;;5.80;1.00;;;;;;20642447;28;21878;-46
2023/01/27 10:11:40;;;;;;;1.05;0.30;;;5.70;1.00;;;;;;20638275;28;20490;-46
2023/01/27 10:22:08;;;;;;;0.65;0.22;;;5.90;1.00;;;;;;20648895;28;20868;-45
2023/01/27 10:32:25;;;;;;;2.17;0.68;;;6.00;1.00;;;;;;20662050;28;20906;-46
2023/01/27 10:42:44;;;;;;;1.03;0.30;;;6.20;1.00;;;;;;20672754;28;21838;-46
2023/01/27 10:53:09;;;;;;;0.88;0.30;;;6.40;1.00;;;;;;20679307;28;20057;-46
2023/01/27 11:03:24;;;;;;;1.30;0.40;;;6.30;1.00;;;;;;20661866;28;20311;-46
2023/01/27 11:13:27;;;;;;;3.20;0.75;;;6.50;1.00;;;;;;20661883;28;20909;-46
2023/01/27 11:23:31;;;;;;;0.70;0.32;;;6.40;1.00;;;;;;20649998;28;20042;-46
2023/01/27 11:33:43;;;;;;;2.38;0.82;;;6.10;1.00;;;;;;20673555;28;20551;-46
2023/01/27 11:43:44;;;;;;;0.77;0.30;;;6.10;2.00;;;;;;20670187;28;20100;-47
2023/01/27 11:53:58;;;;;;;1.40;0.90;;;6.00;1.70;;;;;;20670476;28;20046;-46
2023/01/27 12:04:06;;;;;;;7.95;1.25;;;5.90;1.10;;;;;;20664566;28;20869;-46
2023/01/27 12:14:12;;;;;;;1.63;0.75;;;5.70;2.50;;;;;;20672526;28;20034;-46
2023/01/27 12:24:30;;;;;;;1.27;0.77;;;5.70;5.10;;;;;;20667084;28;20046;-46
2023/01/27 12:34:36;;;;;;;1.27;0.50;;;5.70;7.10;;;;;;20670163;28;21926;-46
2023/01/27 12:44:48;;;;;;;0.82;0.30;;;5.60;8.00;;;;;;20670224;28;20116;-46
2023/01/27 12:54:52;;;;;;;1.90;0.40;;;5.70;10.60;;;;;;20645868;28;20053;-46
2023/01/27 13:04:57;;;;;;;1.65;0.65;;;5.60;11.60;;;;;;20648545;28;20626;-46
2023/01/27 13:15:13;;;;;;;2.35;0.85;;;5.60;13.30;;;;;;20667712;28;20042;-46
2023/01/27 13:25:25;;;;;;;1.15;0.40;;;5.60;9.70;;;;;;20658451;28;20103;-46
2023/01/27 13:35:37;;;;;;;1.20;0.43;;;5.60;10.00;;;;;;20641869;28;21022;-45
2023/01/27 13:46:11;;;;;;;1.13;0.50;;;5.70;5.40;;;;;;20654681;28;20073;-46
2023/01/27 13:56:36;;;;;;;1.55;0.77;;;5.60;5.50;;;;;;20648245;28;20927;-46
2023/01/27 14:07:03;;;;;;;4.70;0.68;;;5.50;5.80;;;;;;20632986;28;20891;-46
2023/01/27 14:17:13;;;;;;;1.77;0.68;;;5.50;6.70;;;;;;20673912;28;21876;-46
2023/01/27 14:27:30;;;;;;;1.70;0.70;;;5.40;11.50;;;;;;20681180;28;20049;-46
2023/01/27 14:37:51;;;;;;;2.33;0.50;;;5.40;11.60;;;;;;20676203;28;20354;-46
2023/01/27 14:48:15;;;;;;;1.27;0.40;;;5.30;15.50;;;;;;20682078;28;21215;-46
2023/01/27 14:58:36;;;;;;;0.93;0.50;;;5.20;14.70;;;;;;20659608;28;20050;-46
2023/01/27 15:08:57;;;;;;;2.20;1.13;;;5.10;15.50;;;;;;20664552;28;20058;-46
2023/01/27 15:19:13;;;;;;;0.98;0.28;;;5.10;10.40;;;;;;20679840;28;20654;-46
2023/01/27 15:29:24;;;;;;;1.00;0.38;;;4.90;13.20;;;;;;20658913;28;20050;-46
2023/01/27 15:39:26;;;;;;;2.15;1.55;;;5.00;13.70;;;;;;20668454;28;21847;-46
2023/01/27 15:49:35;;;;;;;1.25;0.45;;;5.10;7.60;;;;;;20673410;28;20464;-45
2023/01/27 15:59:48;;;;;;;4.03;1.13;;;5.00;8.50;;;;;;20656441;28;20046;-46
2023/01/27 16:09:51;;;;;;;1.23;0.68;;;4.90;10.30;;;;;;20653722;28;20101;-46
2023/01/27 16:20:26;;;;;;;1.85;1.00;;;4.90;11.30;;;;;;20648743;28;20042;-46
2023/01/27 16:30:47;;;;;;;1.27;0.60;;;4.90;11.30;;;;;;20636910;28;21042;-46
2023/01/27 16:40:56;;;;;;;2.30;1.23;;;4.90;9.60;;;;;;20653953;28;20092;-46
2023/01/27 16:51:27;;;;;;;1.30;0.50;;;4.80;13.60;;;;;;20659240;28;20774;-46
2023/01/27 17:01:52;;;;;;;1.85;0.90;;;4.80;13.90;;;;;;20653293;28;20883;-46
2023/01/27 17:11:54;;;;;;;3.35;1.50;;;4.70;15.50;;;;;;20663444;28;20804;-46
2023/01/27 17:22:09;;;;;;;4.35;1.10;;;4.70;18.60;;;;;;20665208;28;20038;-46
2023/01/27 17:32:18;;;;;;;2.30;0.88;;;4.70;20.10;;;;;;20650754;28;20068;-45
2023/01/27 17:42:20;;;;;;;2.95;1.15;;;4.60;15.50;;;;;;20656686;28;20042;-46
2023/01/27 17:52:23;;;;;;;2.97;0.90;;;4.60;12.40;;;;;;20641456;28;20046;-46
2023/01/27 18:02:33;;;;;;;3.40;1.50;;;4.60;14.50;;;;;;20653979;28;20272;-45
2023/01/27 18:12:36;;;;;;;2.30;1.30;;;4.60;12.80;;;;;;20650547;28;20050;-45
2023/01/27 18:22:42;;;;;;;1.85;0.98;;;4.50;16.80;;;;;;20658952;28;20378;-46
2023/01/27 18:32:47;;;;;;;4.70;1.40;;;4.50;15.30;;;;;;20660894;28;20116;-46
2023/01/27 18:42:55;;;;;;;2.92;0.82;;;4.50;10.30;;;;;;20663280;28;20130;-46
2023/01/27 18:52:56;;;;;;;2.15;1.30;;;4.50;10.10;;;;;;20662120;28;20725;-46
2023/01/27 19:02:59;;;;;;;4.07;1.92;;;4.50;13.40;;;;;;20679537;28;20033;-46
2023/01/27 19:13:02;;;;;;;4.18;1.48;;;4.40;23.30;;;;;;20677401;28;20625;-45
2023/01/27 19:23:03;;;;;;;1.83;0.93;;;4.40;26.30;;;;;;20678100;28;20030;-45
2023/01/27 19:33:20;;;;;;;4.50;1.98;;;4.30;24.30;;;;;;20676138;28;20191;-46
2023/01/27 19:43:21;;;;;;;3.47;1.37;;;4.40;20.80;;;;;;20672407;28;20089;-46
2023/01/27 19:53:23;;;;;;;4.03;2.13;;;4.40;23.70;;;;;;20676408;28;20050;-46
2023/01/27 20:03:24;;;;;;;3.97;1.73;;;4.30;32.30;;;;;;20674766;28;21924;-46
2023/01/27 20:13:25;;;;;;;4.05;1.48;;;4.30;22.10;;;;;;20668057;28;20148;-45
2023/01/27 20:23:26;;;;;;;4.38;2.05;;;4.20;18.00;;;;;;20672071;28;20034;-45
2023/01/27 20:33:27;;;;;;;3.58;1.77;;;4.20;24.10;;;;;;20682676;28;20213;-45
2023/01/27 20:43:28;;;;;;;3.00;1.52;;;4.20;31.30;;;;;;20678503;28;20479;-45
2023/01/27 20:53:32;;;;;;;4.00;1.67;;;4.10;32.90;;;;;;20659785;28;20493;-45
2023/01/27 21:03:35;;;;;;;4.63;1.70;;;4.10;29.20;;;;;;20655619;28;20421;-46
2023/01/27 21:13:36;;;;;;;3.25;1.50;;;4.10;30.60;;;;;;20648249;28;20047;-45
2023/01/27 21:23:36;;;;;;;4.57;1.98;;;4.00;40.50;;;;;;20652500;28;20084;-45
2023/01/27 21:33:38;;;;;;;3.90;1.73;;;4.10;30.10;;;;;;20662591;28;20063;-45
2023/01/27 21:53:59;;;;;;;5.28;1.83;;;3.90;36.10;;;;;;20664793;28;21587;-45
2023/01/27 22:04:01;;;;;;;4.95;2.08;;;3.90;47.00;;;;;;20663150;28;20493;-46
2023/01/27 22:14:02;;;;;;;4.50;1.63;;;3.90;55.10;;;;;;20656472;28;20042;-45
2023/01/27 22:24:03;;;;;;;3.92;1.73;;;3.90;66.60;;;;;;20652086;28;20053;-45
2023/01/27 22:34:05;;;;;;;2.22;1.08;;;3.90;44.20;;;;;;20652908;28;20035;-45
2023/01/27 22:44:06;;;;;;;5.90;2.72;;;3.90;38.70;;;;;;20652609;28;20050;-45
2023/01/27 22:54:09;;;;;;;5.00;2.13;;;3.90;38.50;;;;;;20654497;28;20445;-45
2023/01/27 23:04:10;;;;;;;3.35;1.85;;;3.80;49.60;;;;;;20656263;28;20096;-45
2023/01/27 23:14:11;;;;;;;2.83;1.55;;;3.70;46.00;;;;;;20647056;28;20120;-45
2023/01/27 23:24:13;;;;;;;3.40;2.22;;;3.80;47.10;;;;;;20647841;28;20445;-46
2023/01/27 23:34:13;;;;;;;4.13;1.80;;;3.70;47.80;;;;;;20663442;28;20038;-45
2023/01/27 23:44:15;;;;;;;4.03;1.85;;;3.70;47.20;;;;;;20652764;28;20166;-45
2023/01/27 23:54:16;;;;;;;18.38;3.25;;;3.60;44.60;;;;;;20675420;28;20050;-45
